Time;durP1;ratioP1;P1;durP2;ratioP2;P2;SDS_P1;SDS_P2;PMS_P1;PMS_P2;Temp;Humidity;BMP_temperature;BMP_pressure;BME280_temperature;BME280_humidity;BME280_pressure;Samples;Min_cycle;Max_cycle;Signal;HPM_P1;HPM_P2
2022/09/20 00:01:14;;;;;;;;;;;;;;;13.17;69.11;101761.28;5070690;28;19999;-76
2022/09/20 00:03:40;;;;;;;;;;;;;;;13.17;69.46;101760.41;5081579;28;19924;-76
2022/09/20 00:06:07;;;;;;;;;;;;;;;13.17;69.08;101758.66;5087778;28;20633;-76
2022/09/20 00:08:33;;;;;;;;;;;;;;;13.16;69.86;101763.94;5087004;28;19959;-76
2022/09/20 00:11:05;;;;;;;;;;;;;;;13.15;69.28;101754.38;5087811;28;19959;-76
2022/09/20 00:13:31;;;;;;;;;;;;;;;13.18;70.09;101749.09;5086972;28;19930;-76
2022/09/20 00:15:57;;;;;;;;;;;;;;;13.16;70.56;101745.66;5068822;28;19920;-76
2022/09/20 00:18:22;;;;;;;;;;;;;;;13.18;69.92;101744.75;5067156;28;19924;-76
2022/09/20 00:20:48;;;;;;;;;;;;;;;13.15;69.49;101741.31;5050693;28;20533;-76
2022/09/20 00:23:14;;;;;;;;;;;;;;;13.09;69.69;101744.88;5086144;28;19924;-76
2022/09/20 00:25:39;;;;;;;;;;;;;;;12.95;69.83;101744.25;5060730;28;19935;-76
2022/09/20 00:28:05;;;;;;;;;;;;;;;13.06;70.04;101747.53;5089524;28;19920;-76
2022/09/20 00:30:31;;;;;;;;;;;;;;;13.03;69.90;101751.94;5069919;28;19982;-76
2022/09/20 00:32:56;;;;;;;;;;;;;;;13.06;70.20;101752.75;5067026;28;19989;-76
2022/09/20 00:35:22;;;;;;;;;;;;;;;13.04;69.84;101746.72;5070626;28;19924;-76
2022/09/20 00:37:47;;;;;;;;;;;;;;;13.09;69.88;101755.31;5087919;28;19921;-76
2022/09/20 00:40:14;;;;;;;;;;;;;;;13.04;69.31;101751.06;5051788;28;19940;-76
2022/09/20 00:42:39;;;;;;;;;;;;;;;13.08;70.16;101755.34;5052150;28;20026;-76
2022/09/20 00:45:06;;;;;;;;;;;;;;;12.98;69.91;101756.38;5068091;28;20353;-76
2022/09/20 00:47:38;;;;;;;;;;;;;;;13.02;70.28;101763.25;5081783;28;20046;-76
2022/09/20 00:50:18;;;;;;;;;;;;;;;12.98;70.24;101764.19;5090711;28;19924;-76
2022/09/20 00:52:45;;;;;;;;;;;;;;;12.93;70.59;101761.66;5071867;28;19958;-76
2022/09/20 00:55:12;;;;;;;;;;;;;;;13.00;70.17;101752.00;5074258;28;19990;-76
2022/09/20 00:57:37;;;;;;;;;;;;;;;13.04;69.46;101759.75;5074787;28;20348;-76
2022/09/20 01:00:05;;;;;;;;;;;;;;;13.00;69.89;101757.22;5090132;28;19960;-76
2022/09/20 01:02:31;;;;;;;;;;;;;;;13.04;70.06;101754.53;5072297;28;19920;-76
2022/09/20 01:04:57;;;;;;;;;;;;;;;12.99;69.39;101756.34;5092613;28;20459;-76
2022/09/20 01:07:23;;;;;;;;;;;;;;;13.05;69.79;101744.94;5094435;28;20006;-76
2022/09/20 01:09:49;;;;;;;;;;;;;;;13.08;69.68;101747.50;5075524;28;19916;-75
2022/09/20 01:12:17;;;;;;;;;;;;;;;13.03;70.07;101739.78;5092398;28;20310;-75
2022/09/20 01:14:45;;;;;;;;;;;;;;;13.08;70.22;101742.28;5068512;28;19944;-75
2022/09/20 01:17:11;;;;;;;;;;;;;;;13.01;69.85;101744.16;5056193;28;20007;-75
2022/09/20 01:19:40;;;;;;;;;;;;;;;13.04;70.09;101748.47;5056159;28;19973;-75
2022/09/20 01:22:12;;;;;;;;;;;;;;;12.98;69.68;101746.81;5072101;28;19924;-75
2022/09/20 01:24:41;;;;;;;;;;;;;;;13.00;70.32;101746.78;5074514;28;19912;-75
2022/09/20 01:27:13;;;;;;;;;;;;;;;13.03;69.19;101747.59;5071913;28;19920;-75
2022/09/20 01:29:38;;;;;;;;;;;;;;;13.08;70.09;101748.38;5091271;28;19927;-75
2022/09/20 01:32:06;;;;;;;;;;;;;;;13.06;69.77;101751.91;5081105;28;19920;-75
2022/09/20 01:34:36;;;;;;;;;;;;;;;13.03;69.90;101758.03;5073155;28;19924;-75
2022/09/20 01:37:01;;;;;;;;;;;;;;;12.96;71.14;101755.53;5093130;28;19940;-75
2022/09/20 01:39:45;;;;;;;;;;;;;;;13.06;69.96;101754.50;5080068;28;20329;-75
2022/09/20 01:42:12;;;;;;;;;;;;;;;12.90;70.58;101761.69;5072498;28;20006;-75
2022/09/20 01:44:46;;;;;;;;;;;;;;;12.95;70.16;101759.91;5071007;28;19924;-75
2022/09/20 01:47:30;;;;;;;;;;;;;;;12.99;70.11;101761.56;5071565;28;20377;-75
2022/09/20 01:49:55;;;;;;;;;;;;;;;13.06;70.12;101754.50;5079638;28;19921;-75
2022/09/20 01:52:20;;;;;;;;;;;;;;;12.75;70.93;101761.06;5094155;28;19943;-75
2022/09/20 01:55:04;;;;;;;;;;;;;;;12.82;71.29;101762.69;5074786;28;19977;-75
2022/09/20 01:57:32;;;;;;;;;;;;;;;12.89;69.93;101760.00;5085787;28;19920;-75
2022/09/20 02:00:06;;;;;;;;;;;;;;;12.91;70.46;101759.94;5071148;28;19924;-75
2022/09/20 02:02:50;;;;;;;;;;;;;;;12.81;70.90;101761.00;5069998;28;20014;-75
2022/09/20 02:05:34;;;;;;;;;;;;;;;12.80;71.73;101772.28;5080268;28;19920;-75
2022/09/20 02:08:00;;;;;;;;;;;;;;;12.89;71.02;101759.13;5091218;28;19920;-75
2022/09/20 02:11:04;;;;;;;;;;;;;;;12.89;70.66;101765.22;5090176;28;20358;-75
2022/09/20 02:13:38;;;;;;;;;;;;;;;12.99;70.58;101763.28;5008560;28;19925;-75
2022/09/20 02:16:06;;;;;;;;;;;;;;;12.93;71.40;101761.66;5004948;28;20003;-75
2022/09/20 02:18:41;;;;;;;;;;;;;;;12.95;70.97;101759.03;5047839;28;19986;-75
2022/09/20 02:21:19;;;;;;;;;;;;;;;13.06;70.29;101755.38;5077862;28;20011;-75
2022/09/20 02:23:58;;;;;;;;;;;;;;;13.04;69.92;101761.50;5072354;28;20401;-75
2022/09/20 02:26:32;;;;;;;;;;;;;;;12.95;70.02;101759.03;5090656;28;19951;-75
2022/09/20 02:28:57;;;;;;;;;;;;;;;12.87;70.56;101755.69;5090731;28;19931;-75
2022/09/20 02:31:25;;;;;;;;;;;;;;;12.93;71.00;101755.56;5069631;28;19924;-75
2022/09/20 02:33:51;;;;;;;;;;;;;;;12.98;70.21;101743.34;5073495;28;19959;-75
2022/09/20 02:36:26;;;;;;;;;;;;;;;12.98;71.04;101752.03;5070739;28;19952;-75
2022/09/20 02:39:10;;;;;;;;;;;;;;;12.93;70.16;101750.34;5069828;28;20359;-75
2022/09/20 02:41:40;;;;;;;;;;;;;;;12.90;70.74;101745.22;5088672;28;19955;-76
2022/09/20 02:44:12;;;;;;;;;;;;;;;12.97;70.64;101746.81;5070607;28;19920;-76
2022/09/20 02:46:58;;;;;;;;;;;;;;;12.93;70.40;101755.56;5067793;28;19927;-76
2022/09/20 02:49:38;;;;;;;;;;;;;;;12.91;70.44;101746.91;5067514;28;19954;-76
2022/09/20 02:52:12;;;;;;;;;;;;;;;12.97;70.72;101739.00;5089583;28;19997;-76
2022/09/20 02:54:56;;;;;;;;;;;;;;;12.96;69.75;101739.88;5071654;28;19915;-76
2022/09/20 02:57:35;;;;;;;;;;;;;;;12.87;70.26;101740.88;5070806;28;19924;-76
2022/09/20 03:00:08;;;;;;;;;;;;;;;12.95;70.59;101736.44;5070170;28;20406;-76
2022/09/20 03:02:43;;;;;;;;;;;;;;;12.67;71.62;101737.69;5079074;28;19920;-76
2022/09/20 03:05:14;;;;;;;;;;;;;;;12.66;72.13;101738.59;5070100;28;19978;-76
2022/09/20 03:07:56;;;;;;;;;;;;;;;12.86;70.16;101739.16;5073361;28;19924;-76
2022/09/20 03:10:36;;;;;;;;;;;;;;;12.90;70.50;101737.38;5067113;28;19943;-75
2022/09/20 03:13:10;;;;;;;;;;;;;;;12.84;70.38;101738.31;5071540;28;19919;-76
2022/09/20 03:15:48;;;;;;;;;;;;;;;12.66;71.15;101736.84;5084661;28;19920;-76
2022/09/20 03:18:16;;;;;;;;;;;;;;;12.64;71.47;101736.00;5067547;28;19925;-76
2022/09/20 03:21:00;;;;;;;;;;;;;;;12.64;71.69;101738.59;5086192;28;19924;-76
2022/09/20 03:23:50;;;;;;;;;;;;;;;12.65;71.19;101737.75;5089310;28;19920;-76
2022/09/20 03:26:24;;;;;;;;;;;;;;;12.75;71.13;101738.44;5080451;28;19999;-76
2022/09/20 03:29:02;;;;;;;;;;;;;;;12.72;70.87;101742.88;5088341;28;19927;-76
2022/09/20 03:31:43;;;;;;;;;;;;;;;12.86;71.31;101738.31;5086261;28;20357;-76
2022/09/20 03:34:28;;;;;;;;;;;;;;;12.73;71.89;101736.75;5084450;28;20027;-76
2022/09/20 03:37:02;;;;;;;;;;;;;;;12.78;71.26;101748.00;5085588;28;19978;-75
2022/09/20 03:39:27;;;;;;;;;;;;;;;12.70;71.34;101742.88;5086329;28;19986;-76
2022/09/20 03:41:55;;;;;;;;;;;;;;;12.83;70.60;101741.81;5075102;28;19928;-75
2022/09/20 03:44:42;;;;;;;;;;;;;;;12.76;70.61;101740.19;5070164;28;19920;-76
2022/09/20 03:47:26;;;;;;;;;;;;;;;12.81;71.30;101747.94;5087429;28;19926;-76
2022/09/20 03:50:01;;;;;;;;;;;;;;;12.81;71.21;101748.78;5086906;28;19928;-76
2022/09/20 03:52:38;;;;;;;;;;;;;;;12.81;70.77;101746.19;5064939;28;19922;-75
2022/09/20 03:55:21;;;;;;;;;;;;;;;12.91;70.69;101749.53;5089330;28;19923;-76
2022/09/20 03:58:06;;;;;;;;;;;;;;;12.86;70.38;101747.00;5070029;28;20062;-76
2022/09/20 04:00:37;;;;;;;;;;;;;;;12.93;70.54;101745.13;5072001;28;19923;-76
2022/09/20 04:03:08;;;;;;;;;;;;;;;12.80;71.01;101749.69;5088527;28;19924;-75
2022/09/20 04:06:00;;;;;;;;;;;;;;;12.92;70.23;101746.91;5067871;28;20019;-75
2022/09/20 04:08:25;;;;;;;;;;;;;;;12.78;71.58;101751.44;5068843;28;19942;-76
2022/09/20 04:10:54;;;;;;;;;;;;;;;12.84;70.72;101743.53;5070673;28;19924;-75
2022/09/20 04:13:19;;;;;;;;;;;;;;;12.80;71.83;101743.59;5065636;28;20451;-76
2022/09/20 04:15:57;;;;;;;;;;;;;;;12.86;71.60;101748.72;5076501;28;19920;-76
2022/09/20 04:18:41;;;;;;;;;;;;;;;12.81;71.02;101750.56;5063526;28;20350;-76
2022/09/20 04:21:22;;;;;;;;;;;;;;;12.82;70.91;101749.66;5082814;28;19924;-76
2022/09/20 04:23:47;;;;;;;;;;;;;;;12.82;71.47;101747.03;5095470;28;19986;-76
2022/09/20 04:26:14;;;;;;;;;;;;;;;12.83;71.76;101749.66;5076824;28;20511;-76
2022/09/20 04:28:40;;;;;;;;;;;;;;;12.78;71.93;101753.22;5076797;28;19920;-76
2022/09/20 04:31:15;;;;;;;;;;;;;;;12.82;71.99;101753.13;5093572;28;19927;-76
2022/09/20 04:33:44;;;;;;;;;;;;;;;12.79;72.37;101757.53;5088436;28;20280;-76
2022/09/20 04:36:27;;;;;;;;;;;;;;;12.86;71.75;101762.66;5076348;28;20408;-75
2022/09/20 04:39:09;;;;;;;;;;;;;;;12.90;71.05;101763.47;5076547;28;20384;-76
2022/09/20 04:41:45;;;;;;;;;;;;;;;12.88;71.50;101760.00;5074615;28;20006;-76
2022/09/20 04:44:32;;;;;;;;;;;;;;;12.84;71.28;101760.94;5095342;28;19958;-76
2022/09/20 04:47:17;;;;;;;;;;;;;;;12.91;71.61;101765.16;5096913;28;20032;-76
2022/09/20 04:50:01;;;;;;;;;;;;;;;12.96;71.40;101763.34;5090679;28;19926;-76
2022/09/20 04:52:26;;;;;;;;;;;;;;;12.80;71.90;101767.06;5073587;28;20391;-76
2022/09/20 04:55:03;;;;;;;;;;;;;;;12.80;71.28;101764.47;5076963;28;19913;-76
2022/09/20 04:57:33;;;;;;;;;;;;;;;12.82;71.16;101762.69;5077096;28;19924;-76
2022/09/20 05:00:16;;;;;;;;;;;;;;;12.78;71.02;101768.84;5094211;28;19927;-76
2022/09/20 05:02:41;;;;;;;;;;;;;;;12.69;71.78;101772.41;5072248;28;19920;-76
2022/09/20 05:05:15;;;;;;;;;;;;;;;12.73;72.25;101773.25;5076602;28;20290;-76
2022/09/20 05:07:44;;;;;;;;;;;;;;;12.80;71.56;101775.75;5096523;28;19916;-76
2022/09/20 05:10:16;;;;;;;;;;;;;;;12.74;71.18;101775.84;5092294;28;20406;-76
2022/09/20 05:12:59;;;;;;;;;;;;;;;12.76;71.71;101778.41;5075998;28;19916;-76
2022/09/20 05:15:48;;;;;;;;;;;;;;;12.89;71.17;101782.59;5075851;28;20389;-76
2022/09/20 05:18:33;;;;;;;;;;;;;;;12.85;70.29;101784.38;5065095;28;19920;-76
2022/09/20 05:21:04;;;;;;;;;;;;;;;12.81;71.18;101787.91;5074580;28;20066;-76
2022/09/20 05:23:30;;;;;;;;;;;;;;;12.81;70.77;101785.28;5092860;28;19924;-76
2022/09/20 05:26:06;;;;;;;;;;;;;;;12.86;71.87;101790.47;5079085;28;19920;-76
2022/09/20 05:28:53;;;;;;;;;;;;;;;12.90;71.23;101792.16;5094445;28;19920;-76
2022/09/20 05:31:21;;;;;;;;;;;;;;;12.96;70.78;101792.03;5097705;28;20387;-76
2022/09/20 05:34:01;;;;;;;;;;;;;;;12.90;70.93;101792.97;5090949;28;20011;-76
2022/09/20 05:36:39;;;;;;;;;;;;;;;12.91;69.79;101791.25;5072025;28;19916;-77
2022/09/20 05:39:23;;;;;;;;;;;;;;;12.90;70.04;101792.16;5073563;28;19977;-77
2022/09/20 05:41:55;;;;;;;;;;;;;;;12.84;70.03;101792.25;5068379;28;19963;-76
2022/09/20 05:44:39;;;;;;;;;;;;;;;12.87;70.10;101797.41;5068801;28;20286;-77
2022/09/20 05:47:19;;;;;;;;;;;;;;;12.89;70.15;101799.09;5072838;28;19923;-77
2022/09/20 05:49:44;;;;;;;;;;;;;;;12.86;69.62;101799.16;5069052;28;19920;-77
2022/09/20 05:52:19;;;;;;;;;;;;;;;12.82;69.91;101800.06;5089477;28;19920;-77
2022/09/20 05:55:02;;;;;;;;;;;;;;;12.68;70.92;101808.97;5089722;28;19985;-77
2022/09/20 05:57:46;;;;;;;;;;;;;;;12.74;70.39;101812.34;5072035;28;19928;-77
2022/09/20 06:00:15;;;;;;;;;;;;;;;12.84;70.49;101806.09;5080223;28;20365;-77
2022/09/20 06:02:52;;;;;;;;;;;;;;;12.84;70.18;101813.94;5066864;28;19920;-77
2022/09/20 06:05:24;;;;;;;;;;;;;;;12.88;70.46;101810.41;5084538;28;20360;-77
2022/09/20 06:07:52;;;;;;;;;;;;;;;12.89;70.12;101816.50;5089756;28;19952;-77
2022/09/20 06:10:38;;;;;;;;;;;;;;;12.87;70.08;101815.66;5074493;28;19924;-77
2022/09/20 06:13:19;;;;;;;;;;;;;;;12.93;70.16;101812.94;5066788;28;19928;-77
2022/09/20 06:15:58;;;;;;;;;;;;;;;12.96;70.61;101818.13;5085075;28;19920;-77
2022/09/20 06:18:25;;;;;;;;;;;;;;;12.81;71.17;101824.41;5087217;28;20010;-77
2022/09/20 06:20:57;;;;;;;;;;;;;;;12.91;69.81;101818.19;5071256;28;19924;-77
2022/09/20 06:23:23;;;;;;;;;;;;;;;12.95;70.38;101825.09;5087208;28;19927;-77
2022/09/20 06:25:54;;;;;;;;;;;;;;;12.94;70.65;101814.66;5072545;28;19927;-77
2022/09/20 06:28:22;;;;;;;;;;;;;;;12.81;69.39;101820.97;5088723;28;20453;-77
2022/09/20 06:30:52;;;;;;;;;;;;;;;12.86;70.80;101819.16;5077305;28;19916;-77
2022/09/20 06:33:19;;;;;;;;;;;;;;;12.95;70.98;101817.28;5069561;28;19963;-77
2022/09/20 06:35:54;;;;;;;;;;;;;;;12.95;71.23;101825.09;5071700;28;20327;-77
2022/09/20 06:41:27;;;;;;;;;;;;;;;12.98;70.97;101821.59;5086472;28;19927;-77
2022/09/20 06:43:57;;;;;;;;;;;;;;;12.97;71.31;101820.72;5067143;28;19928;-77
2022/09/20 06:46:22;;;;;;;;;;;;;;;12.89;70.77;101830.41;5055355;28;20289;-77
2022/09/20 06:48:49;;;;;;;;;;;;;;;12.98;70.97;101830.28;5070957;28;19924;-76
2022/09/20 06:51:14;;;;;;;;;;;;;;;13.01;70.73;101827.63;5068812;28;21251;-77
2022/09/20 06:53:40;;;;;;;;;;;;;;;12.93;70.78;101834.66;5072175;28;19920;-77
2022/09/20 06:56:14;;;;;;;;;;;;;;;12.95;71.32;101838.13;5071832;28;19924;-76
2022/09/20 06:58:39;;;;;;;;;;;;;;;12.99;71.04;101839.81;5074218;28;19920;-76
2022/09/20 07:01:05;;;;;;;;;;;;;;;12.89;72.08;101853.00;5087362;28;20402;-77
2022/09/20 07:03:31;;;;;;;;;;;;;;;12.98;71.06;101853.75;5086205;28;19931;-77
2022/09/20 07:05:59;;;;;;;;;;;;;;;12.89;71.00;101847.78;5074204;28;19916;-77
2022/09/20 07:08:24;;;;;;;;;;;;;;;12.87;70.04;101852.16;5067790;28;19946;-77
2022/09/20 07:10:49;;;;;;;;;;;;;;;12.91;70.79;101851.22;5072246;28;20377;-77
2022/09/20 07:13:16;;;;;;;;;;;;;;;12.95;70.35;101850.31;5087536;28;19931;-77
2022/09/20 07:15:41;;;;;;;;;;;;;;;12.82;71.17;101851.34;5070468;28;20025;-77
2022/09/20 07:18:07;;;;;;;;;;;;;;;12.91;71.29;101852.09;5056350;28;20012;-77
2022/09/20 07:20:32;;;;;;;;;;;;;;;12.79;71.01;101847.03;5069560;28;19924;-77
2022/09/20 07:22:58;;;;;;;;;;;;;;;12.92;70.90;101851.22;5088164;28;19920;-77
2022/09/20 07:25:23;;;;;;;;;;;;;;;13.01;70.92;101848.50;5088405;28;20396;-77
2022/09/20 07:27:49;;;;;;;;;;;;;;;13.06;70.62;101851.88;5071287;28;19923;-76
2022/09/20 07:30:15;;;;;;;;;;;;;;;13.06;71.30;101853.63;5072823;28;19920;-77
2022/09/20 07:32:40;;;;;;;;;;;;;;;13.07;71.41;101853.63;5086445;28;20039;-77
2022/09/20 07:35:10;;;;;;;;;;;;;;;13.07;71.42;101857.97;5070155;28;20289;-77
2022/09/20 07:37:35;;;;;;;;;;;;;;;13.26;70.23;101848.97;5073103;28;20339;-76
2022/09/20 07:40:02;;;;;;;;;;;;;;;13.21;71.04;101854.28;5072382;28;19916;-77
2022/09/20 07:42:28;;;;;;;;;;;;;;;13.27;71.09;101850.72;5066230;28;19979;-77
2022/09/20 07:44:54;;;;;;;;;;;;;;;13.35;71.28;101856.66;5088780;28;19934;-77
2022/09/20 07:47:24;;;;;;;;;;;;;;;13.35;70.07;101851.44;5069112;28;20413;-77
2022/09/20 07:49:49;;;;;;;;;;;;;;;13.40;69.93;101856.63;5086908;28;19927;-77
2022/09/20 07:52:15;;;;;;;;;;;;;;;13.39;68.70;101850.53;5068594;28;19928;-77
2022/09/20 07:54:40;;;;;;;;;;;;;;;13.38;68.52;101847.94;5066819;28;19968;-77
2022/09/20 07:57:05;;;;;;;;;;;;;;;13.46;69.43;101852.13;5087710;28;20015;-77
2022/09/20 07:59:31;;;;;;;;;;;;;;;13.42;69.24;101855.72;5069355;28;19920;-77
2022/09/20 08:01:59;;;;;;;;;;;;;;;13.46;68.52;101856.53;5087202;28;19955;-77
2022/09/20 08:04:25;;;;;;;;;;;;;;;13.45;69.14;101862.63;5086461;28;20007;-77
2022/09/20 08:06:50;;;;;;;;;;;;;;;13.56;69.25;101858.09;5067018;28;20011;-77
2022/09/20 08:09:15;;;;;;;;;;;;;;;13.55;69.45;101864.22;5048960;28;19920;-77
2022/09/20 08:11:42;;;;;;;;;;;;;;;13.55;69.40;101865.06;5067134;28;19920;-77
2022/09/20 08:14:11;;;;;;;;;;;;;;;13.52;68.84;101870.31;5057969;28;20305;-77
2022/09/20 08:16:41;;;;;;;;;;;;;;;13.59;69.57;101876.31;5066707;28;20439;-77
2022/09/20 08:19:07;;;;;;;;;;;;;;;13.57;67.72;101871.13;5087524;28;19943;-77
2022/09/20 08:21:33;;;;;;;;;;;;;;;13.52;66.37;101874.72;5086676;28;20423;-77
2022/09/20 08:23:58;;;;;;;;;;;;;;;13.58;66.10;101872.84;5073169;28;20282;-77
2022/09/20 08:26:25;;;;;;;;;;;;;;;13.58;65.24;101877.22;5071812;28;20514;-76
2022/09/20 08:28:51;;;;;;;;;;;;;;;13.53;63.81;101866.84;5072966;28;19997;-77
2022/09/20 08:31:20;;;;;;;;;;;;;;;13.55;64.47;101869.44;5085690;28;19924;-77
2022/09/20 08:33:47;;;;;;;;;;;;;;;13.64;66.08;101871.91;5082303;28;19924;-77
2022/09/20 08:36:13;;;;;;;;;;;;;;;13.62;66.08;101869.31;5070720;28;20017;-77
2022/09/20 08:38:39;;;;;;;;;;;;;;;13.64;65.73;101871.91;5068353;28;19920;-77
2022/09/20 08:41:09;;;;;;;;;;;;;;;13.61;64.75;101872.78;5087780;28;19920;-77
2022/09/20 08:43:37;;;;;;;;;;;;;;;13.60;65.87;101872.81;5069110;28;19928;-77
2022/09/20 08:46:04;;;;;;;;;;;;;;;13.67;64.08;101867.50;5087886;28;20002;-77
2022/09/20 08:48:32;;;;;;;;;;;;;;;13.71;64.08;101874.41;5069528;28;19915;-77
2022/09/20 08:50:58;;;;;;;;;;;;;;;13.66;64.58;101872.72;5088240;28;20025;-77
2022/09/20 08:53:27;;;;;;;;;;;;;;;13.55;62.88;101862.44;5087750;28;19994;-77
2022/09/20 08:55:52;;;;;;;;;;;;;;;13.57;63.04;101860.69;5087365;28;20024;-77
2022/09/20 08:58:18;;;;;;;;;;;;;;;13.61;63.16;101862.34;5052525;28;19927;-77
2022/09/20 09:00:45;;;;;;;;;;;;;;;13.63;63.07;101862.34;5088423;28;19916;-77
2022/09/20 09:03:11;;;;;;;;;;;;;;;13.64;62.33;101864.91;5066729;28;19927;-77
2022/09/20 09:05:39;;;;;;;;;;;;;;;13.55;62.05;101865.06;5086588;28;20410;-77
2022/09/20 09:08:08;;;;;;;;;;;;;;;13.64;60.17;101867.50;5071470;28;20411;-77
2022/09/20 09:10:37;;;;;;;;;;;;;;;13.58;60.86;101861.56;5074939;28;19959;-77
2022/09/20 09:13:04;;;;;;;;;;;;;;;13.71;61.65;101866.56;5090728;28;19920;-77
2022/09/20 09:15:32;;;;;;;;;;;;;;;13.78;60.45;101867.34;5073673;28;20035;-77
2022/09/20 09:17:58;;;;;;;;;;;;;;;13.76;60.58;101862.13;5070171;28;20396;-77
2022/09/20 09:20:23;;;;;;;;;;;;;;;13.79;60.47;101865.59;5066287;28;19924;-77
2022/09/20 09:23:03;;;;;;;;;;;;;;;13.78;60.35;101859.50;5087281;28;19920;-77
2022/09/20 09:25:37;;;;;;;;;;;;;;;13.89;59.93;101857.56;5086162;28;19960;-77
2022/09/20 09:28:04;;;;;;;;;;;;;;;13.93;60.00;101863.59;5071269;28;20434;-77
2022/09/20 09:30:31;;;;;;;;;;;;;;;13.94;59.43;101860.13;5088573;28;19916;-77
2022/09/20 09:33:15;;;;;;;;;;;;;;;13.92;59.02;101859.25;5070667;28;19968;-77
2022/09/20 09:35:40;;;;;;;;;;;;;;;13.85;59.69;101866.31;5089140;28;19935;-77
2022/09/20 09:38:20;;;;;;;;;;;;;;;13.97;58.64;101860.03;5088327;28;19921;-77
2022/09/20 09:40:57;;;;;;;;;;;;;;;13.91;59.05;101857.56;5069342;28;19928;-77
2022/09/20 09:43:28;;;;;;;;;;;;;;;14.01;59.62;101861.72;5070040;28;19920;-77
2022/09/20 09:45:54;;;;;;;;;;;;;;;14.05;58.58;101853.81;5091031;28;19951;-77
2022/09/20 09:48:28;;;;;;;;;;;;;;;14.08;57.57;101848.53;5090214;28;19919;-77
2022/09/20 09:51:07;;;;;;;;;;;;;;;14.04;57.73;101859.03;5074505;28;19920;-77
2022/09/20 09:53:34;;;;;;;;;;;;;;;14.02;56.15;101843.41;5078050;28;19967;-76
2022/09/20 09:56:06;;;;;;;;;;;;;;;14.08;56.53;101848.53;5079739;28;19974;-77
2022/09/20 09:58:38;;;;;;;;;;;;;;;14.07;57.34;101852.00;5073439;28;19931;-77
2022/09/20 10:01:06;;;;;;;;;;;;;;;14.11;55.32;101837.16;5072327;28;25427;-77
2022/09/20 10:03:31;;;;;;;;;;;;;;;14.09;56.39;101846.75;5066989;28;19955;-76
2022/09/20 10:06:03;;;;;;;;;;;;;;;14.11;56.96;101851.09;5070291;28;19964;-76
2022/09/20 10:08:28;;;;;;;;;;;;;;;14.02;57.85;101848.63;5085919;28;19928;-76
2022/09/20 10:10:54;;;;;;;;;;;;;;;13.98;57.18;101849.56;5072594;28;20411;-76
2022/09/20 10:13:31;;;;;;;;;;;;;;;14.04;56.54;101851.22;5088364;28;19923;-77
2022/09/20 10:16:00;;;;;;;;;;;;;;;14.03;57.66;101859.91;5086732;28;19927;-77
2022/09/20 10:18:45;;;;;;;;;;;;;;;13.83;58.13;101854.19;5072352;28;20408;-77
2022/09/20 10:21:21;;;;;;;;;;;;;;;13.97;58.85;101850.44;5087908;28;20381;-77
2022/09/20 10:23:59;;;;;;;;;;;;;;;13.91;59.29;101855.78;5071111;28;20147;-77
2022/09/20 10:26:34;;;;;;;;;;;;;;;14.03;59.53;101857.31;5062543;28;19921;-76
2022/09/20 10:29:18;;;;;;;;;;;;;;;14.06;58.54;101852.03;5070829;28;19927;-76
2022/09/20 10:31:56;;;;;;;;;;;;;;;14.09;58.37;101851.97;5069398;28;19974;-76
2022/09/20 10:34:34;;;;;;;;;;;;;;;14.02;57.75;101847.78;5084789;28;19927;-76
2022/09/20 10:37:00;;;;;;;;;;;;;;;14.00;58.40;101857.38;5085841;28;19920;-76
2022/09/20 10:39:32;;;;;;;;;;;;;;;14.03;57.59;101854.69;5074951;28;20416;-76
2022/09/20 10:45:17;;;;;;;;;;;;;;;13.88;58.27;101855.84;5085795;28;20054;-77
2022/09/20 10:47:46;;;;;;;;;;;;;;;13.91;57.67;101855.78;5066598;28;19929;-77
2022/09/20 10:50:35;;;;;;;;;;;;;;;13.86;59.45;101857.63;5088273;28;19916;-77
2022/09/20 10:53:00;;;;;;;;;;;;;;;13.89;59.72;101857.56;5066664;28;19924;-76
2022/09/20 10:55:30;;;;;;;;;;;;;;;13.92;59.74;101857.50;5083887;28;19924;-76
2022/09/20 10:58:02;;;;;;;;;;;;;;;13.87;58.85;101861.09;5064706;28;19916;-76
2022/09/20 11:00:37;;;;;;;;;;;;;;;13.84;58.24;101853.31;5068480;28;19912;-76
2022/09/20 11:03:21;;;;;;;;;;;;;;;13.82;59.22;101855.94;5087611;28;20335;-76
2022/09/20 11:06:05;;;;;;;;;;;;;;;14.00;58.76;101858.22;5068686;28;19916;-76
2022/09/20 11:08:34;;;;;;;;;;;;;;;13.97;59.15;101865.25;5086140;28;19920;-76
2022/09/20 11:11:06;;;;;;;;;;;;;;;14.09;59.64;101863.28;5088549;28;20022;-76
2022/09/20 11:13:37;;;;;;;;;;;;;;;14.13;59.75;101875.41;5069659;28;19931;-76
2022/09/20 11:16:11;;;;;;;;;;;;;;;14.07;58.76;101870.31;5069392;28;19921;-76
2022/09/20 11:18:58;;;;;;;;;;;;;;;14.13;58.24;101862.34;5087055;28;19986;-77
2022/09/20 11:21:42;;;;;;;;;;;;;;;14.20;60.32;101870.97;5061684;28;19920;-77
2022/09/20 11:24:13;;;;;;;;;;;;;;;14.18;59.80;101865.75;5069214;28;19931;-76
2022/09/20 11:26:45;;;;;;;;;;;;;;;14.24;61.17;101868.25;5070515;28;19919;-76
2022/09/20 11:29:31;;;;;;;;;;;;;;;14.30;58.96;101864.66;5089393;28;19928;-76
2022/09/20 11:32:16;;;;;;;;;;;;;;;14.31;57.19;101863.78;5071757;28;20454;-76
2022/09/20 11:34:48;;;;;;;;;;;;;;;14.26;56.05;101863.00;5066392;28;19920;-76
2022/09/20 11:37:14;;;;;;;;;;;;;;;14.27;57.15;101869.94;5080998;28;20007;-75
2022/09/20 11:39:43;;;;;;;;;;;;;;;14.21;56.22;101864.81;5076073;28;19973;-76
2022/09/20 11:42:17;;;;;;;;;;;;;;;14.20;57.99;101877.03;5071949;28;20026;-76
2022/09/20 11:44:43;;;;;;;;;;;;;;;14.09;58.18;101872.88;5069262;28;19935;-76
2022/09/20 11:47:14;;;;;;;;;;;;;;;14.15;56.61;101868.41;5065967;28;20296;-75
2022/09/20 11:49:58;;;;;;;;;;;;;;;14.16;57.70;101872.75;5068748;28;19920;-76
2022/09/20 11:52:25;;;;;;;;;;;;;;;14.11;54.89;101873.72;5090487;28;19920;-76
2022/09/20 11:54:54;;;;;;;;;;;;;;;14.17;53.84;101868.41;5086991;28;20014;-76
2022/09/20 11:57:20;;;;;;;;;;;;;;;14.20;54.90;101871.81;5091532;28;19994;-75
2022/09/20 11:59:52;;;;;;;;;;;;;;;14.15;55.47;101873.63;5076897;28;19927;-76
2022/09/20 12:02:20;;;;;;;;;;;;;;;14.27;54.19;101873.41;5086869;28;20541;-76
2022/09/20 12:04:52;;;;;;;;;;;;;;;14.33;54.97;101875.03;5086621;28;19940;-76
2022/09/20 12:07:35;;;;;;;;;;;;;;;14.16;54.52;101874.50;5087911;28;20358;-75
2022/09/20 12:10:07;;;;;;;;;;;;;;;14.09;54.75;101883.31;5087905;28;19924;-76
2022/09/20 12:12:32;;;;;;;;;;;;;;;14.00;55.05;101884.34;5070240;28;19916;-76
2022/09/20 12:14:59;;;;;;;;;;;;;;;14.14;54.46;101881.53;5085989;28;19931;-76
2022/09/20 12:17:43;;;;;;;;;;;;;;;14.19;53.66;101884.91;5070824;28;20049;-76
2022/09/20 12:20:27;;;;;;;;;;;;;;;14.19;56.58;101892.75;5066720;28;19924;-76
2022/09/20 12:23:12;;;;;;;;;;;;;;;14.06;58.19;101901.66;5065491;28;19959;-76
2022/09/20 12:25:38;;;;;;;;;;;;;;;13.98;58.78;101893.97;5065806;28;19962;-75
2022/09/20 12:28:04;;;;;;;;;;;;;;;14.04;59.40;101899.09;5053382;28;19960;-76
2022/09/20 12:30:32;;;;;;;;;;;;;;;14.18;59.65;101898.84;5027304;28;19921;-76
2022/09/20 12:32:59;;;;;;;;;;;;;;;14.24;58.90;101893.50;5062701;28;19927;-75
2022/09/20 12:35:34;;;;;;;;;;;;;;;14.19;60.84;101900.59;5050050;28;20439;-76
2022/09/20 12:38:36;;;;;;;;;;;;;;;14.28;58.78;101895.19;5066651;28;19916;-76
2022/09/20 12:41:07;;;;;;;;;;;;;;;14.19;59.03;101892.75;4988188;28;19960;-75
2022/09/20 12:43:35;;;;;;;;;;;;;;;14.18;59.29;101896.22;5068463;28;19931;-76
2022/09/20 12:46:00;;;;;;;;;;;;;;;14.25;59.79;101895.25;5100149;28;19916;-76
2022/09/20 12:48:27;;;;;;;;;;;;;;;14.14;54.00;101878.91;5071788;28;19917;-76
2022/09/20 12:54:04;;;;;;;;;;;;;;;14.16;55.14;101887.56;5061233;28;20007;-76
2022/09/20 12:56:33;;;;;;;;;;;;;;;13.98;54.63;101880.91;5092914;28;19978;-76
2022/09/20 12:59:04;;;;;;;;;;;;;;;14.05;56.33;101879.94;5072961;28;20019;-76
2022/09/20 13:01:31;;;;;;;;;;;;;;;14.21;56.43;101885.72;5068325;28;19920;-76
2022/09/20 13:04:17;;;;;;;;;;;;;;;14.16;55.39;101877.97;5077556;28;19928;-76
2022/09/20 13:06:43;;;;;;;;;;;;;;;14.09;56.52;101886.81;5070424;28;19919;-76
2022/09/20 13:09:12;;;;;;;;;;;;;;;14.11;56.34;101885.06;5054584;28;20441;-76